sensor_id;sensor_type;location;lat;lon;timestamp;P1;durP1;ratioP1;P2;durP2;ratioP2
54745;SDS011;40640;48.130;11.356;2023-04-08T00:02:51;12.02;;;7.20;;
54745;SDS011;40640;48.130;11.356;2023-04-08T00:06:54;12.55;;;7.45;;
54745;SDS011;40640;48.130;11.356;2023-04-08T00:10:57;9.95;;;6.80;;
54745;SDS011;40640;48.130;11.356;2023-04-08T00:15:01;14.80;;;7.38;;
54745;SDS011;40640;48.130;11.356;2023-04-08T00:19:05;9.43;;;6.18;;
54745;SDS011;40640;48.130;11.356;2023-04-08T00:23:08;12.45;;;7.22;;
54745;SDS011;40640;48.130;11.356;2023-04-08T00:27:11;8.07;;;5.90;;
54745;SDS011;40640;48.130;11.356;2023-04-08T00:31:13;13.05;;;6.78;;
54745;SDS011;40640;48.130;11.356;2023-04-08T00:35:18;10.63;;;6.97;;
54745;SDS011;40640;48.130;11.356;2023-04-08T00:39:21;10.35;;;6.10;;
54745;SDS011;40640;48.130;11.356;2023-04-08T00:43:24;9.77;;;6.18;;
54745;SDS011;40640;48.130;11.356;2023-04-08T00:47:27;12.07;;;6.72;;
54745;SDS011;40640;48.130;11.356;2023-04-08T00:51:32;11.65;;;6.18;;
54745;SDS011;40640;48.130;11.356;2023-04-08T00:55:36;12.25;;;6.03;;
54745;SDS011;40640;48.130;11.356;2023-04-08T00:59:39;7.57;;;5.55;;
54745;SDS011;40640;48.130;11.356;2023-04-08T01:03:44;9.80;;;6.55;;
54745;SDS011;40640;48.130;11.356;2023-04-08T01:07:57;10.07;;;6.20;;
54745;SDS011;40640;48.130;11.356;2023-04-08T01:12:04;10.27;;;6.05;;
54745;SDS011;40640;48.130;11.356;2023-04-08T01:16:12;16.35;;;6.63;;
54745;SDS011;40640;48.130;11.356;2023-04-08T01:20:18;9.57;;;6.78;;
54745;SDS011;40640;48.130;11.356;2023-04-08T01:24:25;10.45;;;6.93;;
54745;SDS011;40640;48.130;11.356;2023-04-08T01:28:32;11.57;;;7.40;;
54745;SDS011;40640;48.130;11.356;2023-04-08T01:32:35;14.63;;;8.32;;
54745;SDS011;40640;48.130;11.356;2023-04-08T01:36:39;12.93;;;7.22;;
54745;SDS011;40640;48.130;11.356;2023-04-08T01:40:47;12.65;;;7.95;;
54745;SDS011;40640;48.130;11.356;2023-04-08T01:44:52;19.13;;;11.50;;
54745;SDS011;40640;48.130;11.356;2023-04-08T01:48:57;12.95;;;8.13;;
54745;SDS011;40640;48.130;11.356;2023-04-08T01:53:01;14.68;;;8.25;;
54745;SDS011;40640;48.130;11.356;2023-04-08T01:57:07;11.68;;;7.32;;
54745;SDS011;40640;48.130;11.356;2023-04-08T02:01:16;11.20;;;7.32;;
54745;SDS011;40640;48.130;11.356;2023-04-08T02:05:23;14.02;;;7.55;;
54745;SDS011;40640;48.130;11.356;2023-04-08T02:09:26;17.48;;;7.85;;
54745;SDS011;40640;48.130;11.356;2023-04-08T02:13:30;13.82;;;8.95;;
54745;SDS011;40640;48.130;11.356;2023-04-08T02:17:37;18.17;;;8.55;;
54745;SDS011;40640;48.130;11.356;2023-04-08T02:21:45;15.80;;;8.52;;
54745;SDS011;40640;48.130;11.356;2023-04-08T02:25:51;16.33;;;9.13;;
54745;SDS011;40640;48.130;11.356;2023-04-08T02:30:00;14.82;;;9.25;;
54745;SDS011;40640;48.130;11.356;2023-04-08T02:34:06;17.95;;;9.25;;
54745;SDS011;40640;48.130;11.356;2023-04-08T02:38:10;14.25;;;9.20;;
54745;SDS011;40640;48.130;11.356;2023-04-08T02:42:14;15.35;;;9.95;;
54745;SDS011;40640;48.130;11.356;2023-04-08T02:46:16;20.55;;;10.05;;
54745;SDS011;40640;48.130;11.356;2023-04-08T02:50:21;14.82;;;9.80;;
54745;SDS011;40640;48.130;11.356;2023-04-08T02:54:24;15.63;;;9.45;;
54745;SDS011;40640;48.130;11.356;2023-04-08T02:58:27;14.95;;;9.80;;
54745;SDS011;40640;48.130;11.356;2023-04-08T03:02:30;16.08;;;10.43;;
54745;SDS011;40640;48.130;11.356;2023-04-08T03:06:34;16.13;;;10.05;;
54745;SDS011;40640;48.130;11.356;2023-04-08T03:10:37;15.00;;;10.20;;
54745;SDS011;40640;48.130;11.356;2023-04-08T03:14:40;15.32;;;10.30;;
54745;SDS011;40640;48.130;11.356;2023-04-08T03:18:43;17.52;;;10.68;;
54745;SDS011;40640;48.130;11.356;2023-04-08T03:22:47;19.20;;;10.10;;
54745;SDS011;40640;48.130;11.356;2023-04-08T03:26:50;18.00;;;9.88;;
54745;SDS011;40640;48.130;11.356;2023-04-08T03:30:52;17.65;;;11.15;;
54745;SDS011;40640;48.130;11.356;2023-04-08T03:34:55;19.63;;;11.20;;
54745;SDS011;40640;48.130;11.356;2023-04-08T03:39:00;19.17;;;11.07;;
54745;SDS011;40640;48.130;11.356;2023-04-08T03:43:04;19.17;;;10.95;;
54745;SDS011;40640;48.130;11.356;2023-04-08T03:47:09;17.02;;;10.60;;
54745;SDS011;40640;48.130;11.356;2023-04-08T03:51:11;18.88;;;12.20;;
54745;SDS011;40640;48.130;11.356;2023-04-08T03:55:16;19.20;;;11.23;;
54745;SDS011;40640;48.130;11.356;2023-04-08T03:59:18;19.30;;;12.65;;
54745;SDS011;40640;48.130;11.356;2023-04-08T04:03:21;17.85;;;11.32;;
54745;SDS011;40640;48.130;11.356;2023-04-08T04:07:25;21.77;;;12.90;;
54745;SDS011;40640;48.130;11.356;2023-04-08T04:11:29;22.52;;;12.45;;
54745;SDS011;40640;48.130;11.356;2023-04-08T04:15:32;19.88;;;11.80;;
54745;SDS011;40640;48.130;11.356;2023-04-08T04:19:34;20.02;;;12.30;;
54745;SDS011;40640;48.130;11.356;2023-04-08T04:23:37;19.73;;;12.25;;
54745;SDS011;40640;48.130;11.356;2023-04-08T04:27:42;21.88;;;12.50;;
54745;SDS011;40640;48.130;11.356;2023-04-08T04:31:44;21.27;;;12.35;;
54745;SDS011;40640;48.130;11.356;2023-04-08T04:35:47;19.95;;;12.35;;
54745;SDS011;40640;48.130;11.356;2023-04-08T04:39:50;19.48;;;11.48;;
54745;SDS011;40640;48.130;11.356;2023-04-08T04:43:54;21.42;;;13.07;;
54745;SDS011;40640;48.130;11.356;2023-04-08T04:47:57;19.70;;;12.70;;
54745;SDS011;40640;48.130;11.356;2023-04-08T04:52:00;20.42;;;12.48;;
54745;SDS011;40640;48.130;11.356;2023-04-08T04:56:03;20.25;;;12.75;;
54745;SDS011;40640;48.130;11.356;2023-04-08T05:00:08;20.88;;;12.73;;
54745;SDS011;40640;48.130;11.356;2023-04-08T05:04:11;23.40;;;14.00;;
54745;SDS011;40640;48.130;11.356;2023-04-08T05:08:14;21.58;;;13.30;;
54745;SDS011;40640;48.130;11.356;2023-04-08T05:12:17;21.42;;;12.48;;
54745;SDS011;40640;48.130;11.356;2023-04-08T05:16:22;16.75;;;11.88;;
54745;SDS011;40640;48.130;11.356;2023-04-08T05:20:25;16.45;;;10.68;;
54745;SDS011;40640;48.130;11.356;2023-04-08T05:24:28;18.73;;;11.52;;
54745;SDS011;40640;48.130;11.356;2023-04-08T05:28:31;17.13;;;11.57;;
54745;SDS011;40640;48.130;11.356;2023-04-08T05:32:35;16.63;;;11.32;;
54745;SDS011;40640;48.130;11.356;2023-04-08T05:36:38;16.42;;;11.00;;
54745;SDS011;40640;48.130;11.356;2023-04-08T05:40:41;16.10;;;10.18;;
54745;SDS011;40640;48.130;11.356;2023-04-08T05:44:44;17.20;;;10.40;;
54745;SDS011;40640;48.130;11.356;2023-04-08T05:48:48;15.38;;;10.02;;
54745;SDS011;40640;48.130;11.356;2023-04-08T05:52:51;14.70;;;10.13;;
54745;SDS011;40640;48.130;11.356;2023-04-08T05:56:54;16.17;;;10.27;;
54745;SDS011;40640;48.130;11.356;2023-04-08T06:00:57;14.07;;;10.02;;
54745;SDS011;40640;48.130;11.356;2023-04-08T06:05:01;15.30;;;10.88;;
54745;SDS011;40640;48.130;11.356;2023-04-08T06:09:05;13.93;;;10.00;;
54745;SDS011;40640;48.130;11.356;2023-04-08T06:13:08;14.02;;;9.43;;
54745;SDS011;40640;48.130;11.356;2023-04-08T06:17:10;12.80;;;9.10;;
54745;SDS011;40640;48.130;11.356;2023-04-08T06:21:15;11.93;;;9.00;;
54745;SDS011;40640;48.130;11.356;2023-04-08T06:25:17;16.88;;;9.55;;
54745;SDS011;40640;48.130;11.356;2023-04-08T06:29:20;15.15;;;9.82;;
54745;SDS011;40640;48.130;11.356;2023-04-08T06:33:24;24.80;;;10.85;;
54745;SDS011;40640;48.130;11.356;2023-04-08T06:37:28;14.38;;;10.15;;
54745;SDS011;40640;48.130;11.356;2023-04-08T06:41:31;14.38;;;10.32;;
54745;SDS011;40640;48.130;11.356;2023-04-08T06:45:48;13.95;;;10.27;;
54745;SDS011;40640;48.130;11.356;2023-04-08T06:49:52;17.55;;;11.35;;
54745;SDS011;40640;48.130;11.356;2023-04-08T06:53:56;19.83;;;12.07;;
54745;SDS011;40640;48.130;11.356;2023-04-08T06:57:59;20.67;;;12.18;;
54745;SDS011;40640;48.130;11.356;2023-04-08T07:02:02;21.38;;;12.88;;
54745;SDS011;40640;48.130;11.356;2023-04-08T07:06:05;20.27;;;13.25;;
54745;SDS011;40640;48.130;11.356;2023-04-08T07:10:11;21.05;;;14.05;;
54745;SDS011;40640;48.130;11.356;2023-04-08T07:14:14;22.02;;;14.23;;
54745;SDS011;40640;48.130;11.356;2023-04-08T07:18:17;24.45;;;15.40;;
54745;SDS011;40640;48.130;11.356;2023-04-08T07:22:21;23.88;;;14.02;;
54745;SDS011;40640;48.130;11.356;2023-04-08T07:26:26;22.65;;;16.17;;
54745;SDS011;40640;48.130;11.356;2023-04-08T07:30:29;24.42;;;14.45;;
54745;SDS011;40640;48.130;11.356;2023-04-08T07:34:33;24.02;;;15.32;;
54745;SDS011;40640;48.130;11.356;2023-04-08T07:38:36;22.02;;;15.00;;
54745;SDS011;40640;48.130;11.356;2023-04-08T07:42:40;21.10;;;13.77;;
54745;SDS011;40640;48.130;11.356;2023-04-08T07:46:43;22.13;;;14.90;;
54745;SDS011;40640;48.130;11.356;2023-04-08T07:50:49;21.02;;;14.63;;
54745;SDS011;40640;48.130;11.356;2023-04-08T07:55:11;21.33;;;14.30;;
54745;SDS011;40640;48.130;11.356;2023-04-08T07:59:15;19.63;;;13.35;;
54745;SDS011;40640;48.130;11.356;2023-04-08T08:03:18;19.80;;;13.35;;
54745;SDS011;40640;48.130;11.356;2023-04-08T08:07:21;21.58;;;14.02;;
54745;SDS011;40640;48.130;11.356;2023-04-08T08:11:24;20.23;;;14.30;;
54745;SDS011;40640;48.130;11.356;2023-04-08T08:15:29;23.05;;;12.40;;
54745;SDS011;40640;48.130;11.356;2023-04-08T08:19:32;19.50;;;12.90;;
54745;SDS011;40640;48.130;11.356;2023-04-08T08:23:35;21.15;;;12.20;;
54745;SDS011;40640;48.130;11.356;2023-04-08T08:27:38;18.17;;;12.00;;
54745;SDS011;40640;48.130;11.356;2023-04-08T08:31:44;22.02;;;12.43;;
54745;SDS011;40640;48.130;11.356;2023-04-08T08:35:48;18.25;;;12.40;;
54745;SDS011;40640;48.130;11.356;2023-04-08T08:39:52;17.77;;;12.02;;
54745;SDS011;40640;48.130;11.356;2023-04-08T08:43:55;18.70;;;13.00;;
54745;SDS011;40640;48.130;11.356;2023-04-08T08:47:59;15.07;;;11.77;;
54745;SDS011;40640;48.130;11.356;2023-04-08T08:52:03;17.50;;;12.07;;
54745;SDS011;40640;48.130;11.356;2023-04-08T08:56:07;15.63;;;11.32;;
54745;SDS011;40640;48.130;11.356;2023-04-08T09:00:19;18.92;;;11.80;;
54745;SDS011;40640;48.130;11.356;2023-04-08T09:04:36;23.48;;;12.73;;
54745;SDS011;40640;48.130;11.356;2023-04-08T09:08:39;22.02;;;11.73;;
54745;SDS011;40640;48.130;11.356;2023-04-08T09:12:51;14.40;;;10.18;;
54745;SDS011;40640;48.130;11.356;2023-04-08T09:16:56;15.95;;;11.65;;
54745;SDS011;40640;48.130;11.356;2023-04-08T09:21:00;17.13;;;10.35;;
54745;SDS011;40640;48.130;11.356;2023-04-08T09:25:16;14.50;;;9.50;;
54745;SDS011;40640;48.130;11.356;2023-04-08T09:29:24;17.00;;;9.50;;
54745;SDS011;40640;48.130;11.356;2023-04-08T09:33:33;17.58;;;10.55;;
54745;SDS011;40640;48.130;11.356;2023-04-08T09:37:37;18.05;;;10.63;;
54745;SDS011;40640;48.130;11.356;2023-04-08T09:41:41;20.25;;;12.18;;
54745;SDS011;40640;48.130;11.356;2023-04-08T09:45:44;16.33;;;10.45;;
54745;SDS011;40640;48.130;11.356;2023-04-08T09:49:50;20.13;;;12.23;;
54745;SDS011;40640;48.130;11.356;2023-04-08T09:53:59;19.27;;;11.40;;
54745;SDS011;40640;48.130;11.356;2023-04-08T09:58:06;18.10;;;11.15;;
54745;SDS011;40640;48.130;11.356;2023-04-08T10:02:12;20.95;;;11.15;;
54745;SDS011;40640;48.130;11.356;2023-04-08T10:06:21;17.17;;;12.27;;
54745;SDS011;40640;48.130;11.356;2023-04-08T10:10:31;16.65;;;11.60;;
54745;SDS011;40640;48.130;11.356;2023-04-08T10:14:35;17.92;;;12.43;;
54745;SDS011;40640;48.130;11.356;2023-04-08T10:18:38;17.75;;;11.80;;
54745;SDS011;40640;48.130;11.356;2023-04-08T10:22:47;19.88;;;11.73;;
54745;SDS011;40640;48.130;11.356;2023-04-08T10:26:52;18.13;;;12.15;;
54745;SDS011;40640;48.130;11.356;2023-04-08T10:30:55;18.17;;;11.70;;
54745;SDS011;40640;48.130;11.356;2023-04-08T10:34:58;18.95;;;12.57;;
54745;SDS011;40640;48.130;11.356;2023-04-08T10:39:01;15.23;;;11.07;;
54745;SDS011;40640;48.130;11.356;2023-04-08T10:43:06;15.68;;;11.50;;
54745;SDS011;40640;48.130;11.356;2023-04-08T10:47:09;17.77;;;11.20;;
54745;SDS011;40640;48.130;11.356;2023-04-08T10:51:13;15.77;;;11.57;;
54745;SDS011;40640;48.130;11.356;2023-04-08T10:55:16;16.17;;;12.02;;
54745;SDS011;40640;48.130;11.356;2023-04-08T10:59:29;16.02;;;11.20;;
54745;SDS011;40640;48.130;11.356;2023-04-08T11:03:33;22.15;;;13.13;;
54745;SDS011;40640;48.130;11.356;2023-04-08T11:07:39;16.73;;;11.38;;
54745;SDS011;40640;48.130;11.356;2023-04-08T11:11:43;19.75;;;13.30;;
54745;SDS011;40640;48.130;11.356;2023-04-08T11:15:47;17.80;;;12.05;;
54745;SDS011;40640;48.130;11.356;2023-04-08T11:19:51;19.23;;;12.35;;
54745;SDS011;40640;48.130;11.356;2023-04-08T11:23:54;17.48;;;12.15;;
54745;SDS011;40640;48.130;11.356;2023-04-08T11:27:57;18.27;;;12.18;;
54745;SDS011;40640;48.130;11.356;2023-04-08T11:32:02;19.20;;;13.13;;
54745;SDS011;40640;48.130;11.356;2023-04-08T11:36:05;16.95;;;12.18;;
54745;SDS011;40640;48.130;11.356;2023-04-08T11:40:09;19.48;;;13.15;;
54745;SDS011;40640;48.130;11.356;2023-04-08T11:44:13;19.48;;;10.70;;
54745;SDS011;40640;48.130;11.356;2023-04-08T11:48:17;17.05;;;10.30;;
54745;SDS011;40640;48.130;11.356;2023-04-08T11:52:20;14.75;;;10.48;;
54745;SDS011;40640;48.130;11.356;2023-04-08T11:56:23;13.05;;;10.10;;
54745;SDS011;40640;48.130;11.356;2023-04-08T12:00:27;19.08;;;11.05;;
54745;SDS011;40640;48.130;11.356;2023-04-08T12:04:31;15.88;;;10.77;;
54745;SDS011;40640;48.130;11.356;2023-04-08T12:08:35;20.23;;;11.85;;
54745;SDS011;40640;48.130;11.356;2023-04-08T12:12:39;16.50;;;11.98;;
54745;SDS011;40640;48.130;11.356;2023-04-08T12:16:42;15.80;;;11.38;;
54745;SDS011;40640;48.130;11.356;2023-04-08T12:20:46;17.40;;;11.93;;
54745;SDS011;40640;48.130;11.356;2023-04-08T12:24:49;20.17;;;11.50;;
54745;SDS011;40640;48.130;11.356;2023-04-08T12:28:52;20.23;;;12.48;;
54745;SDS011;40640;48.130;11.356;2023-04-08T12:32:55;20.05;;;11.52;;
54745;SDS011;40640;48.130;11.356;2023-04-08T12:36:59;18.55;;;12.57;;
54745;SDS011;40640;48.130;11.356;2023-04-08T12:41:02;18.23;;;11.50;;
54745;SDS011;40640;48.130;11.356;2023-04-08T12:45:06;16.83;;;11.93;;
54745;SDS011;40640;48.130;11.356;2023-04-08T12:49:09;19.27;;;11.82;;
54745;SDS011;40640;48.130;11.356;2023-04-08T12:53:14;16.17;;;11.27;;
54745;SDS011;40640;48.130;11.356;2023-04-08T12:57:17;18.17;;;10.80;;
54745;SDS011;40640;48.130;11.356;2023-04-08T13:01:19;15.18;;;10.77;;
54745;SDS011;40640;48.130;11.356;2023-04-08T13:05:22;14.93;;;11.18;;
54745;SDS011;40640;48.130;11.356;2023-04-08T13:09:44;15.40;;;11.23;;
54745;SDS011;40640;48.130;11.356;2023-04-08T13:13:47;16.27;;;11.35;;
54745;SDS011;40640;48.130;11.356;2023-04-08T13:17:50;19.95;;;11.70;;
54745;SDS011;40640;48.130;11.356;2023-04-08T13:21:53;18.58;;;11.88;;
54745;SDS011;40640;48.130;11.356;2023-04-08T13:25:57;14.77;;;10.50;;
54745;SDS011;40640;48.130;11.356;2023-04-08T13:30:00;16.17;;;11.48;;
54745;SDS011;40640;48.130;11.356;2023-04-08T13:34:03;18.00;;;11.07;;
54745;SDS011;40640;48.130;11.356;2023-04-08T13:38:06;18.27;;;11.43;;
54745;SDS011;40640;48.130;11.356;2023-04-08T13:42:10;17.45;;;11.32;;
54745;SDS011;40640;48.130;11.356;2023-04-08T13:46:13;19.30;;;12.07;;
54745;SDS011;40640;48.130;11.356;2023-04-08T13:50:16;16.90;;;11.75;;
54745;SDS011;40640;48.130;11.356;2023-04-08T13:54:19;18.40;;;11.95;;
54745;SDS011;40640;48.130;11.356;2023-04-08T13:58:24;16.88;;;11.55;;
54745;SDS011;40640;48.130;11.356;2023-04-08T14:02:27;18.55;;;12.63;;
54745;SDS011;40640;48.130;11.356;2023-04-08T14:06:30;19.25;;;12.02;;
54745;SDS011;40640;48.130;11.356;2023-04-08T14:10:34;16.45;;;11.25;;
54745;SDS011;40640;48.130;11.356;2023-04-08T14:14:38;16.67;;;9.75;;
54745;SDS011;40640;48.130;11.356;2023-04-08T14:18:41;14.75;;;9.75;;
54745;SDS011;40640;48.130;11.356;2023-04-08T14:22:43;13.65;;;9.32;;
54745;SDS011;40640;48.130;11.356;2023-04-08T14:26:46;12.07;;;8.90;;
54745;SDS011;40640;48.130;11.356;2023-04-08T14:30:52;17.85;;;9.73;;
54745;SDS011;40640;48.130;11.356;2023-04-08T14:34:54;15.45;;;9.43;;
54745;SDS011;40640;48.130;11.356;2023-04-08T14:38:58;13.85;;;9.05;;
54745;SDS011;40640;48.130;11.356;2023-04-08T14:43:01;11.32;;;7.80;;
54745;SDS011;40640;48.130;11.356;2023-04-08T14:47:05;16.08;;;8.82;;
54745;SDS011;40640;48.130;11.356;2023-04-08T14:51:08;12.07;;;8.73;;
54745;SDS011;40640;48.130;11.356;2023-04-08T14:55:11;11.48;;;9.07;;
54745;SDS011;40640;48.130;11.356;2023-04-08T14:59:13;13.25;;;9.55;;
54745;SDS011;40640;48.130;11.356;2023-04-08T15:03:18;14.00;;;10.05;;
54745;SDS011;40640;48.130;11.356;2023-04-08T15:07:30;14.60;;;9.63;;
54745;SDS011;40640;48.130;11.356;2023-04-08T15:11:33;12.65;;;9.13;;
54745;SDS011;40640;48.130;11.356;2023-04-08T15:15:36;14.68;;;9.07;;
54745;SDS011;40640;48.130;11.356;2023-04-08T15:19:40;10.82;;;8.13;;
54745;SDS011;40640;48.130;11.356;2023-04-08T15:23:43;11.27;;;8.57;;
54745;SDS011;40640;48.130;11.356;2023-04-08T15:27:46;15.02;;;9.80;;
54745;SDS011;40640;48.130;11.356;2023-04-08T15:31:50;12.88;;;9.35;;
54745;SDS011;40640;48.130;11.356;2023-04-08T15:35:54;14.23;;;10.20;;
54745;SDS011;40640;48.130;11.356;2023-04-08T15:39:57;13.75;;;9.77;;
54745;SDS011;40640;48.130;11.356;2023-04-08T15:44:00;15.05;;;9.82;;
54745;SDS011;40640;48.130;11.356;2023-04-08T15:48:03;13.95;;;9.88;;
54745;SDS011;40640;48.130;11.356;2023-04-08T15:52:08;14.70;;;10.80;;
54745;SDS011;40640;48.130;11.356;2023-04-08T15:56:11;14.55;;;10.13;;
54745;SDS011;40640;48.130;11.356;2023-04-08T16:00:15;16.00;;;10.68;;
54745;SDS011;40640;48.130;11.356;2023-04-08T16:04:18;16.63;;;10.30;;
54745;SDS011;40640;48.130;11.356;2023-04-08T16:08:23;18.02;;;11.05;;
54745;SDS011;40640;48.130;11.356;2023-04-08T16:12:25;15.27;;;10.25;;
54745;SDS011;40640;48.130;11.356;2023-04-08T16:16:29;17.25;;;11.20;;
54745;SDS011;40640;48.130;11.356;2023-04-08T16:20:32;19.48;;;11.05;;
54745;SDS011;40640;48.130;11.356;2023-04-08T16:24:39;22.50;;;12.48;;
54745;SDS011;40640;48.130;11.356;2023-04-08T16:28:42;17.90;;;11.15;;
54745;SDS011;40640;48.130;11.356;2023-04-08T16:32:45;18.88;;;11.85;;
54745;SDS011;40640;48.130;11.356;2023-04-08T16:36:48;16.25;;;10.98;;
54745;SDS011;40640;48.130;11.356;2023-04-08T16:40:55;17.17;;;11.70;;
54745;SDS011;40640;48.130;11.356;2023-04-08T16:44:58;17.92;;;11.45;;
54745;SDS011;40640;48.130;11.356;2023-04-08T16:49:01;15.32;;;11.60;;
54745;SDS011;40640;48.130;11.356;2023-04-08T16:53:04;16.00;;;10.63;;
54745;SDS011;40640;48.130;11.356;2023-04-08T16:57:08;20.00;;;12.73;;
54745;SDS011;40640;48.130;11.356;2023-04-08T17:01:11;18.30;;;11.93;;
54745;SDS011;40640;48.130;11.356;2023-04-08T17:05:15;17.35;;;11.50;;
54745;SDS011;40640;48.130;11.356;2023-04-08T17:09:18;17.55;;;11.68;;
54745;SDS011;40640;48.130;11.356;2023-04-08T17:13:22;16.65;;;11.05;;
54745;SDS011;40640;48.130;11.356;2023-04-08T17:17:25;17.08;;;11.93;;
54745;SDS011;40640;48.130;11.356;2023-04-08T17:21:28;15.35;;;11.18;;
54745;SDS011;40640;48.130;11.356;2023-04-08T17:25:31;15.25;;;10.93;;
54745;SDS011;40640;48.130;11.356;2023-04-08T17:29:37;15.98;;;10.77;;
54745;SDS011;40640;48.130;11.356;2023-04-08T17:33:40;16.13;;;11.07;;
54745;SDS011;40640;48.130;11.356;2023-04-08T17:37:43;16.73;;;11.80;;
54745;SDS011;40640;48.130;11.356;2023-04-08T17:41:45;15.50;;;11.20;;
54745;SDS011;40640;48.130;11.356;2023-04-08T17:45:50;15.23;;;10.93;;
54745;SDS011;40640;48.130;11.356;2023-04-08T17:49:53;17.45;;;11.23;;
54745;SDS011;40640;48.130;11.356;2023-04-08T17:53:56;20.70;;;11.82;;
54745;SDS011;40640;48.130;11.356;2023-04-08T17:57:59;18.13;;;11.50;;
54745;SDS011;40640;48.130;11.356;2023-04-08T18:02:03;17.30;;;10.73;;
54745;SDS011;40640;48.130;11.356;2023-04-08T18:06:06;20.48;;;12.73;;
54745;SDS011;40640;48.130;11.356;2023-04-08T18:10:09;19.92;;;10.98;;
54745;SDS011;40640;48.130;11.356;2023-04-08T18:14:12;17.90;;;10.93;;
54745;SDS011;40640;48.130;11.356;2023-04-08T18:18:18;18.08;;;11.65;;
54745;SDS011;40640;48.130;11.356;2023-04-08T18:22:22;16.40;;;10.10;;
54745;SDS011;40640;48.130;11.356;2023-04-08T18:26:24;17.92;;;11.18;;
54745;SDS011;40640;48.130;11.356;2023-04-08T18:30:28;18.73;;;11.45;;
54745;SDS011;40640;48.130;11.356;2023-04-08T18:34:32;23.52;;;13.57;;
54745;SDS011;40640;48.130;11.356;2023-04-08T18:38:35;20.70;;;12.20;;
54745;SDS011;40640;48.130;11.356;2023-04-08T18:42:40;20.55;;;11.25;;
54745;SDS011;40640;48.130;11.356;2023-04-08T18:46:43;24.13;;;12.15;;
54745;SDS011;40640;48.130;11.356;2023-04-08T18:50:48;23.30;;;11.93;;
54745;SDS011;40640;48.130;11.356;2023-04-08T18:54:50;17.65;;;10.65;;
54745;SDS011;40640;48.130;11.356;2023-04-08T18:58:53;22.65;;;11.18;;
54745;SDS011;40640;48.130;11.356;2023-04-08T19:02:56;19.05;;;11.20;;
54745;SDS011;40640;48.130;11.356;2023-04-08T19:07:01;20.88;;;11.98;;
54745;SDS011;40640;48.130;11.356;2023-04-08T19:11:03;23.27;;;12.25;;
54745;SDS011;40640;48.130;11.356;2023-04-08T19:15:07;21.48;;;12.43;;
54745;SDS011;40640;48.130;11.356;2023-04-08T19:19:10;19.73;;;11.57;;
54745;SDS011;40640;48.130;11.356;2023-04-08T19:23:14;21.85;;;12.35;;
54745;SDS011;40640;48.130;11.356;2023-04-08T19:27:19;17.88;;;11.68;;
54745;SDS011;40640;48.130;11.356;2023-04-08T19:31:21;19.10;;;11.35;;
54745;SDS011;40640;48.130;11.356;2023-04-08T19:35:24;19.15;;;11.88;;
54745;SDS011;40640;48.130;11.356;2023-04-08T19:39:28;20.63;;;12.52;;
54745;SDS011;40640;48.130;11.356;2023-04-08T19:43:31;19.95;;;11.82;;
54745;SDS011;40640;48.130;11.356;2023-04-08T19:47:34;21.98;;;12.38;;
54745;SDS011;40640;48.130;11.356;2023-04-08T19:51:37;24.80;;;12.85;;
54745;SDS011;40640;48.130;11.356;2023-04-08T19:55:41;22.40;;;13.00;;
54745;SDS011;40640;48.130;11.356;2023-04-08T19:59:44;23.80;;;13.20;;
54745;SDS011;40640;48.130;11.356;2023-04-08T20:03:48;24.48;;;14.32;;
54745;SDS011;40640;48.130;11.356;2023-04-08T20:07:52;21.40;;;13.60;;
54745;SDS011;40640;48.130;11.356;2023-04-08T20:11:56;23.58;;;13.88;;
54745;SDS011;40640;48.130;11.356;2023-04-08T20:16:05;24.05;;;13.85;;
54745;SDS011;40640;48.130;11.356;2023-04-08T20:20:08;25.77;;;15.52;;
54745;SDS011;40640;48.130;11.356;2023-04-08T20:24:12;25.42;;;14.75;;
54745;SDS011;40640;48.130;11.356;2023-04-08T20:28:16;26.13;;;16.58;;
54745;SDS011;40640;48.130;11.356;2023-04-08T20:32:19;31.30;;;17.80;;
54745;SDS011;40640;48.130;11.356;2023-04-08T20:36:22;29.00;;;17.08;;
54745;SDS011;40640;48.130;11.356;2023-04-08T20:40:25;31.33;;;17.65;;
54745;SDS011;40640;48.130;11.356;2023-04-08T20:44:29;29.50;;;17.73;;
54745;SDS011;40640;48.130;11.356;2023-04-08T20:48:32;31.60;;;18.55;;
54745;SDS011;40640;48.130;11.356;2023-04-08T20:52:36;33.25;;;18.35;;
54745;SDS011;40640;48.130;11.356;2023-04-08T20:56:39;35.08;;;19.90;;
54745;SDS011;40640;48.130;11.356;2023-04-08T21:00:45;38.08;;;20.75;;
54745;SDS011;40640;48.130;11.356;2023-04-08T21:04:48;39.38;;;21.67;;
54745;SDS011;40640;48.130;11.356;2023-04-08T21:08:51;44.00;;;21.88;;
54745;SDS011;40640;48.130;11.356;2023-04-08T21:12:54;37.80;;;20.30;;
54745;SDS011;40640;48.130;11.356;2023-04-08T21:16:59;40.03;;;21.10;;
54745;SDS011;40640;48.130;11.356;2023-04-08T21:21:02;42.67;;;21.08;;
54745;SDS011;40640;48.130;11.356;2023-04-08T21:25:05;42.83;;;22.20;;
54745;SDS011;40640;48.130;11.356;2023-04-08T21:29:08;46.35;;;23.55;;
54745;SDS011;40640;48.130;11.356;2023-04-08T21:33:13;44.30;;;23.33;;
54745;SDS011;40640;48.130;11.356;2023-04-08T21:37:16;42.80;;;24.23;;
54745;SDS011;40640;48.130;11.356;2023-04-08T21:41:18;47.60;;;24.63;;
54745;SDS011;40640;48.130;11.356;2023-04-08T21:45:21;48.63;;;25.65;;
54745;SDS011;40640;48.130;11.356;2023-04-08T21:49:26;48.75;;;26.00;;
54745;SDS011;40640;48.130;11.356;2023-04-08T21:53:30;47.63;;;26.73;;
54745;SDS011;40640;48.130;11.356;2023-04-08T21:57:32;61.80;;;30.30;;
54745;SDS011;40640;48.130;11.356;2023-04-08T22:01:35;60.92;;;30.17;;
54745;SDS011;40640;48.130;11.356;2023-04-08T22:05:40;68.20;;;32.38;;
54745;SDS011;40640;48.130;11.356;2023-04-08T22:09:43;74.20;;;32.45;;
54745;SDS011;40640;48.130;11.356;2023-04-08T22:13:46;53.67;;;26.60;;
54745;SDS011;40640;48.130;11.356;2023-04-08T22:17:49;49.72;;;26.70;;
54745;SDS011;40640;48.130;11.356;2023-04-08T22:21:54;47.67;;;24.35;;
54745;SDS011;40640;48.130;11.356;2023-04-08T22:25:57;41.83;;;22.20;;
54745;SDS011;40640;48.130;11.356;2023-04-08T22:30:00;44.78;;;23.15;;
54745;SDS011;40640;48.130;11.356;2023-04-08T22:34:03;59.95;;;26.65;;
54745;SDS011;40640;48.130;11.356;2023-04-08T22:38:08;63.97;;;27.63;;
54745;SDS011;40640;48.130;11.356;2023-04-08T22:42:10;54.22;;;25.02;;
54745;SDS011;40640;48.130;11.356;2023-04-08T22:46:13;53.08;;;25.25;;
54745;SDS011;40640;48.130;11.356;2023-04-08T22:50:18;44.10;;;22.67;;
54745;SDS011;40640;48.130;11.356;2023-04-08T22:54:23;41.40;;;22.30;;
54745;SDS011;40640;48.130;11.356;2023-04-08T22:58:26;39.67;;;22.67;;
54745;SDS011;40640;48.130;11.356;2023-04-08T23:02:29;42.70;;;21.33;;
54745;SDS011;40640;48.130;11.356;2023-04-08T23:06:32;39.03;;;22.08;;
54745;SDS011;40640;48.130;11.356;2023-04-08T23:10:36;35.90;;;20.35;;
54745;SDS011;40640;48.130;11.356;2023-04-08T23:14:39;39.38;;;20.63;;
54745;SDS011;40640;48.130;11.356;2023-04-08T23:18:42;34.80;;;20.45;;
54745;SDS011;40640;48.130;11.356;2023-04-08T23:22:45;32.20;;;19.55;;
54745;SDS011;40640;48.130;11.356;2023-04-08T23:26:49;34.55;;;20.65;;
54745;SDS011;40640;48.130;11.356;2023-04-08T23:30:52;39.38;;;21.67;;